sensor_id;sensor_type;location;lat;lon;timestamp;temperature;humidity
67722;SHT31;58309;45.292;11.820;2022-10-31T00:01:18;12.35;99.99
67722;SHT31;58309;45.292;11.820;2022-10-31T00:03:43;12.31;99.99
67722;SHT31;58309;45.292;11.820;2022-10-31T00:06:09;12.31;99.99
67722;SHT31;58309;45.292;11.820;2022-10-31T00:08:34;12.28;99.99
67722;SHT31;58309;45.292;11.820;2022-10-31T00:11:00;12.27;99.99
67722;SHT31;58309;45.292;11.820;2022-10-31T00:13:26;12.23;99.99
67722;SHT31;58309;45.292;11.820;2022-10-31T00:15:51;12.20;99.99
67722;SHT31;58309;45.292;11.820;2022-10-31T00:18:17;12.21;99.99
67722;SHT31;58309;45.292;11.820;2022-10-31T00:20:42;12.25;99.99
67722;SHT31;58309;45.292;11.820;2022-10-31T00:23:09;12.25;99.99
67722;SHT31;58309;45.292;11.820;2022-10-31T00:25:37;12.24;99.99
67722;SHT31;58309;45.292;11.820;2022-10-31T00:28:04;12.23;99.99
67722;SHT31;58309;45.292;11.820;2022-10-31T00:30:30;12.20;99.99
67722;SHT31;58309;45.292;11.820;2022-10-31T00:32:55;12.18;99.99
67722;SHT31;58309;45.292;11.820;2022-10-31T00:35:21;12.20;99.99
67722;SHT31;58309;45.292;11.820;2022-10-31T00:37:46;12.16;99.99
67722;SHT31;58309;45.292;11.820;2022-10-31T00:43:15;12.14;99.99
67722;SHT31;58309;45.292;11.820;2022-10-31T00:45:41;12.11;99.99
67722;SHT31;58309;45.292;11.820;2022-10-31T00:48:07;12.07;99.99
67722;SHT31;58309;45.292;11.820;2022-10-31T00:50:33;12.01;99.99
67722;SHT31;58309;45.292;11.820;2022-10-31T00:52:59;11.95;99.99
67722;SHT31;58309;45.292;11.820;2022-10-31T00:55:24;11.89;99.99
67722;SHT31;58309;45.292;11.820;2022-10-31T00:57:50;11.84;99.99
67722;SHT31;58309;45.292;11.820;2022-10-31T01:00:16;11.79;99.99
67722;SHT31;58309;45.292;11.820;2022-10-31T01:02:41;11.74;99.99
67722;SHT31;58309;45.292;11.820;2022-10-31T01:05:07;11.77;99.99
67722;SHT31;58309;45.292;11.820;2022-10-31T01:07:36;11.77;99.99
67722;SHT31;58309;45.292;11.820;2022-10-31T01:10:02;11.74;99.99
67722;SHT31;58309;45.292;11.820;2022-10-31T01:12:28;11.76;99.99
67722;SHT31;58309;45.292;11.820;2022-10-31T01:14:53;11.69;99.99
67722;SHT31;58309;45.292;11.820;2022-10-31T01:17:19;11.67;99.99
67722;SHT31;58309;45.292;11.820;2022-10-31T01:19:44;11.65;99.99
67722;SHT31;58309;45.292;11.820;2022-10-31T01:22:10;11.73;99.99
67722;SHT31;58309;45.292;11.820;2022-10-31T01:24:36;11.72;99.99
67722;SHT31;58309;45.292;11.820;2022-10-31T01:27:01;11.76;99.99
67722;SHT31;58309;45.292;11.820;2022-10-31T01:29:27;11.72;99.99
67722;SHT31;58309;45.292;11.820;2022-10-31T01:31:52;11.67;99.99
67722;SHT31;58309;45.292;11.820;2022-10-31T01:34:18;11.66;99.99
67722;SHT31;58309;45.292;11.820;2022-10-31T01:36:45;11.66;99.99
67722;SHT31;58309;45.292;11.820;2022-10-31T01:39:14;11.66;99.99
67722;SHT31;58309;45.292;11.820;2022-10-31T01:41:50;11.67;99.99
67722;SHT31;58309;45.292;11.820;2022-10-31T01:46:55;11.60;99.99
67722;SHT31;58309;45.292;11.820;2022-10-31T01:49:43;11.59;99.99
67722;SHT31;58309;45.292;11.820;2022-10-31T01:52:30;11.56;99.99
67722;SHT31;58309;45.292;11.820;2022-10-31T01:58:07;11.59;99.99
67722;SHT31;58309;45.292;11.820;2022-10-31T02:00:34;11.59;99.99
67722;SHT31;58309;45.292;11.820;2022-10-31T02:03:00;11.51;99.99
67722;SHT31;58309;45.292;11.820;2022-10-31T02:05:28;11.51;99.99
67722;SHT31;58309;45.292;11.820;2022-10-31T02:07:59;11.46;99.99
67722;SHT31;58309;45.292;11.820;2022-10-31T02:10:27;11.47;99.99
67722;SHT31;58309;45.292;11.820;2022-10-31T02:12:55;11.47;99.99
67722;SHT31;58309;45.292;11.820;2022-10-31T02:15:21;11.42;99.99
67722;SHT31;58309;45.292;11.820;2022-10-31T02:17:47;11.49;99.99
67722;SHT31;58309;45.292;11.820;2022-10-31T02:20:17;11.39;99.99
67722;SHT31;58309;45.292;11.820;2022-10-31T02:35:54;11.29;99.99
67722;SHT31;58309;45.292;11.820;2022-10-31T02:46:57;11.02;99.99
67722;SHT31;58309;45.292;11.820;2022-10-31T02:49:32;10.97;99.99
67722;SHT31;58309;45.292;11.820;2022-10-31T02:51:59;10.90;99.99
67722;SHT31;58309;45.292;11.820;2022-10-31T02:54:26;10.87;99.99
67722;SHT31;58309;45.292;11.820;2022-10-31T02:57:04;10.84;99.99
67722;SHT31;58309;45.292;11.820;2022-10-31T02:59:32;10.82;99.99
67722;SHT31;58309;45.292;11.820;2022-10-31T03:15:49;10.80;99.99
67722;SHT31;58309;45.292;11.820;2022-10-31T03:18:37;10.75;99.99
67722;SHT31;58309;45.292;11.820;2022-10-31T03:21:13;10.75;99.99
67722;SHT31;58309;45.292;11.820;2022-10-31T03:23:42;10.84;99.99
67722;SHT31;58309;45.292;11.820;2022-10-31T03:26:11;10.81;99.99
67722;SHT31;58309;45.292;11.820;2022-10-31T03:28:43;10.74;99.99
67722;SHT31;58309;45.292;11.820;2022-10-31T03:31:11;10.68;99.99
67722;SHT31;58309;45.292;11.820;2022-10-31T03:33:39;10.60;99.99
67722;SHT31;58309;45.292;11.820;2022-10-31T03:36:07;10.51;99.99
67722;SHT31;58309;45.292;11.820;2022-10-31T03:38:35;10.44;99.99
67722;SHT31;58309;45.292;11.820;2022-10-31T03:41:03;10.43;99.99
67722;SHT31;58309;45.292;11.820;2022-10-31T03:43:33;10.40;99.99
67722;SHT31;58309;45.292;11.820;2022-10-31T03:46:01;10.40;99.99
67722;SHT31;58309;45.292;11.820;2022-10-31T03:48:27;10.39;99.99
67722;SHT31;58309;45.292;11.820;2022-10-31T03:53:36;10.36;99.99
67722;SHT31;58309;45.292;11.820;2022-10-31T03:56:14;10.32;99.99
67722;SHT31;58309;45.292;11.820;2022-10-31T03:58:51;10.24;99.99
67722;SHT31;58309;45.292;11.820;2022-10-31T04:01:18;10.19;99.99
67722;SHT31;58309;45.292;11.820;2022-10-31T04:03:45;10.13;99.99
67722;SHT31;58309;45.292;11.820;2022-10-31T04:06:13;10.08;99.99
67722;SHT31;58309;45.292;11.820;2022-10-31T04:08:45;10.12;99.99
67722;SHT31;58309;45.292;11.820;2022-10-31T04:11:13;10.09;99.99
67722;SHT31;58309;45.292;11.820;2022-10-31T04:13:41;10.10;99.99
67722;SHT31;58309;45.292;11.820;2022-10-31T04:16:10;10.05;99.99
67722;SHT31;58309;45.292;11.820;2022-10-31T04:18:36;9.98;99.99
67722;SHT31;58309;45.292;11.820;2022-10-31T04:21:04;9.89;99.99
67722;SHT31;58309;45.292;11.820;2022-10-31T04:23:30;9.88;99.99
67722;SHT31;58309;45.292;11.820;2022-10-31T04:25:56;9.88;99.99
67722;SHT31;58309;45.292;11.820;2022-10-31T04:28:21;9.85;99.99
67722;SHT31;58309;45.292;11.820;2022-10-31T04:30:47;9.85;99.99
67722;SHT31;58309;45.292;11.820;2022-10-31T04:33:13;9.83;99.99
67722;SHT31;58309;45.292;11.820;2022-10-31T04:35:38;9.86;99.99
67722;SHT31;58309;45.292;11.820;2022-10-31T04:38:04;9.86;99.99
67722;SHT31;58309;45.292;11.820;2022-10-31T04:40:29;9.91;99.99
67722;SHT31;58309;45.292;11.820;2022-10-31T04:42:55;9.95;99.99
67722;SHT31;58309;45.292;11.820;2022-10-31T04:45:20;9.98;99.99
67722;SHT31;58309;45.292;11.820;2022-10-31T04:47:46;9.98;99.99
67722;SHT31;58309;45.292;11.820;2022-10-31T04:50:11;10.03;99.99
67722;SHT31;58309;45.292;11.820;2022-10-31T04:52:44;10.13;99.99
67722;SHT31;58309;45.292;11.820;2022-10-31T04:55:10;10.12;99.99
67722;SHT31;58309;45.292;11.820;2022-10-31T04:57:44;10.10;99.99
67722;SHT31;58309;45.292;11.820;2022-10-31T05:00:11;10.08;99.99
67722;SHT31;58309;45.292;11.820;2022-10-31T05:02:52;10.02;99.99
67722;SHT31;58309;45.292;11.820;2022-10-31T05:05:19;9.96;99.99
67722;SHT31;58309;45.292;11.820;2022-10-31T05:07:46;9.92;99.99
67722;SHT31;58309;45.292;11.820;2022-10-31T05:10:15;9.85;99.99
67722;SHT31;58309;45.292;11.820;2022-10-31T05:12:51;9.86;99.99
67722;SHT31;58309;45.292;11.820;2022-10-31T05:15:18;9.85;99.99
67722;SHT31;58309;45.292;11.820;2022-10-31T05:17:43;9.92;99.99
67722;SHT31;58309;45.292;11.820;2022-10-31T05:20:10;9.93;99.99
67722;SHT31;58309;45.292;11.820;2022-10-31T05:22:36;10.09;99.99
67722;SHT31;58309;45.292;11.820;2022-10-31T05:25:02;10.09;99.99
67722;SHT31;58309;45.292;11.820;2022-10-31T05:27:28;10.09;99.99
67722;SHT31;58309;45.292;11.820;2022-10-31T05:29:54;10.14;99.99
67722;SHT31;58309;45.292;11.820;2022-10-31T05:32:19;10.12;99.99
67722;SHT31;58309;45.292;11.820;2022-10-31T05:34:45;10.08;99.99
67722;SHT31;58309;45.292;11.820;2022-10-31T05:37:10;10.08;99.99
67722;SHT31;58309;45.292;11.820;2022-10-31T05:39:36;10.02;99.99
67722;SHT31;58309;45.292;11.820;2022-10-31T05:42:01;10.03;99.99
67722;SHT31;58309;45.292;11.820;2022-10-31T05:44:27;10.13;99.99
67722;SHT31;58309;45.292;11.820;2022-10-31T05:46:52;10.16;99.99
67722;SHT31;58309;45.292;11.820;2022-10-31T05:49:18;10.12;99.99
67722;SHT31;58309;45.292;11.820;2022-10-31T05:51:43;10.12;99.99
67722;SHT31;58309;45.292;11.820;2022-10-31T05:54:09;10.05;99.99
67722;SHT31;58309;45.292;11.820;2022-10-31T05:56:34;10.02;99.99
67722;SHT31;58309;45.292;11.820;2022-10-31T05:59:00;9.95;99.99
67722;SHT31;58309;45.292;11.820;2022-10-31T06:01:25;9.92;99.99
67722;SHT31;58309;45.292;11.820;2022-10-31T06:03:51;9.86;99.99
67722;SHT31;58309;45.292;11.820;2022-10-31T06:06:16;9.82;99.99
67722;SHT31;58309;45.292;11.820;2022-10-31T06:08:42;9.85;99.99
67722;SHT31;58309;45.292;11.820;2022-10-31T06:11:07;9.85;99.99
67722;SHT31;58309;45.292;11.820;2022-10-31T06:13:33;9.89;99.99
67722;SHT31;58309;45.292;11.820;2022-10-31T06:15:58;9.96;99.99
67722;SHT31;58309;45.292;11.820;2022-10-31T06:18:24;10.16;99.99
67722;SHT31;58309;45.292;11.820;2022-10-31T06:20:50;10.23;99.99
67722;SHT31;58309;45.292;11.820;2022-10-31T06:23:15;10.32;99.99
67722;SHT31;58309;45.292;11.820;2022-10-31T06:25:41;10.49;99.99
67722;SHT31;58309;45.292;11.820;2022-10-31T06:28:06;10.59;99.99
67722;SHT31;58309;45.292;11.820;2022-10-31T06:30:32;10.73;99.99
67722;SHT31;58309;45.292;11.820;2022-10-31T06:33:04;10.84;99.99
67722;SHT31;58309;45.292;11.820;2022-10-31T06:35:30;10.94;99.99
67722;SHT31;58309;45.292;11.820;2022-10-31T06:37:55;11.01;99.96
67722;SHT31;58309;45.292;11.820;2022-10-31T06:40:21;11.08;99.80
67722;SHT31;58309;45.292;11.820;2022-10-31T06:42:47;11.19;99.71
67722;SHT31;58309;45.292;11.820;2022-10-31T06:45:12;11.26;99.71
67722;SHT31;58309;45.292;11.820;2022-10-31T06:47:38;11.36;99.55
67722;SHT31;58309;45.292;11.820;2022-10-31T06:50:04;11.47;99.39
67722;SHT31;58309;45.292;11.820;2022-10-31T06:52:29;11.55;99.03
67722;SHT31;58309;45.292;11.820;2022-10-31T06:54:55;11.65;98.71
67722;SHT31;58309;45.292;11.820;2022-10-31T06:57:20;11.77;98.65
67722;SHT31;58309;45.292;11.820;2022-10-31T06:59:46;11.86;98.09
67722;SHT31;58309;45.292;11.820;2022-10-31T07:02:12;11.90;97.65
67722;SHT31;58309;45.292;11.820;2022-10-31T07:04:37;11.90;97.57
67722;SHT31;58309;45.292;11.820;2022-10-31T07:07:03;11.91;97.46
67722;SHT31;58309;45.292;11.820;2022-10-31T07:09:29;11.91;97.67
67722;SHT31;58309;45.292;11.820;2022-10-31T07:11:54;11.90;97.68
67722;SHT31;58309;45.292;11.820;2022-10-31T07:14:20;11.94;97.72
67722;SHT31;58309;45.292;11.820;2022-10-31T07:16:49;12.03;97.90
67722;SHT31;58309;45.292;11.820;2022-10-31T07:19:16;12.13;97.79
67722;SHT31;58309;45.292;11.820;2022-10-31T07:21:41;12.23;97.28
67722;SHT31;58309;45.292;11.820;2022-10-31T07:24:07;12.30;97.01
67722;SHT31;58309;45.292;11.820;2022-10-31T07:26:32;12.42;96.90
67722;SHT31;58309;45.292;11.820;2022-10-31T07:28:58;12.49;96.64
67722;SHT31;58309;45.292;11.820;2022-10-31T07:31:25;12.62;96.76
67722;SHT31;58309;45.292;11.820;2022-10-31T07:33:50;12.73;96.71
67722;SHT31;58309;45.292;11.820;2022-10-31T07:36:16;12.86;96.67
67722;SHT31;58309;45.292;11.820;2022-10-31T07:38:41;13.03;96.92
67722;SHT31;58309;45.292;11.820;2022-10-31T07:41:07;13.19;96.14
67722;SHT31;58309;45.292;11.820;2022-10-31T07:43:32;13.36;96.32
67722;SHT31;58309;45.292;11.820;2022-10-31T07:45:58;13.53;96.28
67722;SHT31;58309;45.292;11.820;2022-10-31T07:48:23;13.72;96.07
67722;SHT31;58309;45.292;11.820;2022-10-31T07:50:49;13.92;95.91
67722;SHT31;58309;45.292;11.820;2022-10-31T07:53:15;14.12;95.22
67722;SHT31;58309;45.292;11.820;2022-10-31T07:55:41;14.30;95.35
67722;SHT31;58309;45.292;11.820;2022-10-31T07:58:09;14.47;94.07
67722;SHT31;58309;45.292;11.820;2022-10-31T08:00:36;14.70;93.20
67722;SHT31;58309;45.292;11.820;2022-10-31T08:03:13;14.91;93.07
67722;SHT31;58309;45.292;11.820;2022-10-31T08:05:39;15.25;91.75
67722;SHT31;58309;45.292;11.820;2022-10-31T08:08:06;15.51;90.86
67722;SHT31;58309;45.292;11.820;2022-10-31T08:10:33;15.82;90.81
67722;SHT31;58309;45.292;11.820;2022-10-31T08:13:07;16.68;86.82
67722;SHT31;58309;45.292;11.820;2022-10-31T08:15:34;17.85;84.92
67722;SHT31;58309;45.292;11.820;2022-10-31T08:18:02;19.10;80.90
67722;SHT31;58309;45.292;11.820;2022-10-31T08:20:28;20.03;74.45
67722;SHT31;58309;45.292;11.820;2022-10-31T08:22:58;20.67;72.28
67722;SHT31;58309;45.292;11.820;2022-10-31T08:25:25;21.32;71.32
67722;SHT31;58309;45.292;11.820;2022-10-31T08:27:52;22.01;69.76
67722;SHT31;58309;45.292;11.820;2022-10-31T08:30:19;22.56;67.55
67722;SHT31;58309;45.292;11.820;2022-10-31T08:32:45;22.88;65.69
67722;SHT31;58309;45.292;11.820;2022-10-31T08:35:10;23.22;67.19
67722;SHT31;58309;45.292;11.820;2022-10-31T08:37:36;23.51;65.21
67722;SHT31;58309;45.292;11.820;2022-10-31T08:40:02;23.55;66.04
67722;SHT31;58309;45.292;11.820;2022-10-31T08:42:27;23.70;64.36
67722;SHT31;58309;45.292;11.820;2022-10-31T08:44:53;24.28;64.60
67722;SHT31;58309;45.292;11.820;2022-10-31T08:47:18;24.51;61.76
67722;SHT31;58309;45.292;11.820;2022-10-31T08:49:43;25.11;58.84
67722;SHT31;58309;45.292;11.820;2022-10-31T08:52:09;25.44;58.56
67722;SHT31;58309;45.292;11.820;2022-10-31T08:54:34;25.92;56.84
67722;SHT31;58309;45.292;11.820;2022-10-31T08:57:00;25.92;56.29
67722;SHT31;58309;45.292;11.820;2022-10-31T08:59:26;25.21;58.65
67722;SHT31;58309;45.292;11.820;2022-10-31T09:01:51;24.87;59.31
67722;SHT31;58309;45.292;11.820;2022-10-31T09:04:17;25.03;58.12
67722;SHT31;58309;45.292;11.820;2022-10-31T09:06:42;25.86;56.53
67722;SHT31;58309;45.292;11.820;2022-10-31T09:09:08;26.26;55.93
67722;SHT31;58309;45.292;11.820;2022-10-31T09:11:33;25.71;56.51
67722;SHT31;58309;45.292;11.820;2022-10-31T09:13:59;26.13;55.52
67722;SHT31;58309;45.292;11.820;2022-10-31T09:16:24;26.53;55.20
67722;SHT31;58309;45.292;11.820;2022-10-31T09:18:50;27.52;53.59
67722;SHT31;58309;45.292;11.820;2022-10-31T09:21:15;28.08;52.07
67722;SHT31;58309;45.292;11.820;2022-10-31T09:23:40;28.35;50.40
67722;SHT31;58309;45.292;11.820;2022-10-31T09:26:06;27.82;51.44
67722;SHT31;58309;45.292;11.820;2022-10-31T09:28:31;28.21;50.37
67722;SHT31;58309;45.292;11.820;2022-10-31T09:30:57;28.41;50.30
67722;SHT31;58309;45.292;11.820;2022-10-31T09:33:23;27.86;50.82
67722;SHT31;58309;45.292;11.820;2022-10-31T09:35:49;28.40;50.04
67722;SHT31;58309;45.292;11.820;2022-10-31T09:38:16;27.93;50.46
67722;SHT31;58309;45.292;11.820;2022-10-31T09:51:44;28.28;50.17
67722;SHT31;58309;45.292;11.820;2022-10-31T09:54:18;28.56;49.29
67722;SHT31;58309;45.292;11.820;2022-10-31T09:56:45;29.10;48.24
67722;SHT31;58309;45.292;11.820;2022-10-31T09:59:17;29.31;47.29
67722;SHT31;58309;45.292;11.820;2022-10-31T10:02:06;30.01;46.21
67722;SHT31;58309;45.292;11.820;2022-10-31T10:05:04;30.25;46.23
67722;SHT31;58309;45.292;11.820;2022-10-31T10:11:12;29.64;47.80
67722;SHT31;58309;45.292;11.820;2022-10-31T10:16:32;29.77;47.33
67722;SHT31;58309;45.292;11.820;2022-10-31T10:27:14;29.85;46.05
67722;SHT31;58309;45.292;11.820;2022-10-31T10:32:31;30.32;45.11
67722;SHT31;58309;45.292;11.820;2022-10-31T10:37:50;30.95;44.23
67722;SHT31;58309;45.292;11.820;2022-10-31T10:40:20;30.97;43.96
67722;SHT31;58309;45.292;11.820;2022-10-31T10:51:37;31.20;42.65
67722;SHT31;58309;45.292;11.820;2022-10-31T10:54:31;31.49;42.56
67722;SHT31;58309;45.292;11.820;2022-10-31T10:59:44;31.68;43.07
67722;SHT31;58309;45.292;11.820;2022-10-31T11:02:19;31.45;42.84
67722;SHT31;58309;45.292;11.820;2022-10-31T11:04:48;31.04;44.10
67722;SHT31;58309;45.292;11.820;2022-10-31T11:07:15;31.37;44.37
67722;SHT31;58309;45.292;11.820;2022-10-31T11:09:40;31.78;42.61
67722;SHT31;58309;45.292;11.820;2022-10-31T11:12:14;31.49;43.71
67722;SHT31;58309;45.292;11.820;2022-10-31T11:14:57;30.84;43.34
67722;SHT31;58309;45.292;11.820;2022-10-31T11:17:31;30.90;43.84
67722;SHT31;58309;45.292;11.820;2022-10-31T11:20:16;31.18;43.86
67722;SHT31;58309;45.292;11.820;2022-10-31T11:22:47;31.01;43.41
67722;SHT31;58309;45.292;11.820;2022-10-31T11:27:44;30.62;44.20
67722;SHT31;58309;45.292;11.820;2022-10-31T11:30:13;29.89;44.93
67722;SHT31;58309;45.292;11.820;2022-10-31T11:32:49;29.22;46.35
67722;SHT31;58309;45.292;11.820;2022-10-31T11:35:18;28.83;47.35
67722;SHT31;58309;45.292;11.820;2022-10-31T11:37:46;28.47;47.64
67722;SHT31;58309;45.292;11.820;2022-10-31T11:40:20;28.08;48.39
67722;SHT31;58309;45.292;11.820;2022-10-31T11:42:47;28.04;49.08
67722;SHT31;58309;45.292;11.820;2022-10-31T11:45:40;28.52;47.43
67722;SHT31;58309;45.292;11.820;2022-10-31T11:48:16;28.71;47.52
67722;SHT31;58309;45.292;11.820;2022-10-31T11:50:48;29.13;46.84
67722;SHT31;58309;45.292;11.820;2022-10-31T11:53:20;29.34;46.18
67722;SHT31;58309;45.292;11.820;2022-10-31T11:55:47;29.91;45.11
67722;SHT31;58309;45.292;11.820;2022-10-31T11:58:24;29.44;46.20
67722;SHT31;58309;45.292;11.820;2022-10-31T12:00:52;29.94;45.87
67722;SHT31;58309;45.292;11.820;2022-10-31T12:03:29;29.97;45.41
67722;SHT31;58309;45.292;11.820;2022-10-31T12:06:20;30.05;45.64
67722;SHT31;58309;45.292;11.820;2022-10-31T12:08:47;29.98;45.32
67722;SHT31;58309;45.292;11.820;2022-10-31T12:13:49;30.18;45.82
67722;SHT31;58309;45.292;11.820;2022-10-31T12:16:21;29.75;45.32
67722;SHT31;58309;45.292;11.820;2022-10-31T12:19:10;29.10;47.60
67722;SHT31;58309;45.292;11.820;2022-10-31T12:27:24;27.41;49.50
67722;SHT31;58309;45.292;11.820;2022-10-31T12:32:50;26.41;51.51
67722;SHT31;58309;45.292;11.820;2022-10-31T12:35:38;26.13;52.01
67722;SHT31;58309;45.292;11.820;2022-10-31T12:46:34;25.61;54.95
67722;SHT31;58309;45.292;11.820;2022-10-31T12:49:46;25.41;55.09
67722;SHT31;58309;45.292;11.820;2022-10-31T12:52:30;25.23;54.46
67722;SHT31;58309;45.292;11.820;2022-10-31T12:58:03;25.01;54.99
67722;SHT31;58309;45.292;11.820;2022-10-31T13:00:37;24.95;55.31
67722;SHT31;58309;45.292;11.820;2022-10-31T13:06:14;24.83;55.71
67722;SHT31;58309;45.292;11.820;2022-10-31T13:08:51;24.79;55.91
67722;SHT31;58309;45.292;11.820;2022-10-31T13:11:27;24.77;55.72
67722;SHT31;58309;45.292;11.820;2022-10-31T13:16:45;24.62;55.09
67722;SHT31;58309;45.292;11.820;2022-10-31T13:19:39;24.56;54.20
67722;SHT31;58309;45.292;11.820;2022-10-31T13:22:25;24.57;54.45
67722;SHT31;58309;45.292;11.820;2022-10-31T13:25:03;24.60;54.39
67722;SHT31;58309;45.292;11.820;2022-10-31T13:30:24;24.73;54.56
67722;SHT31;58309;45.292;11.820;2022-10-31T13:33:05;24.73;55.36
67722;SHT31;58309;45.292;11.820;2022-10-31T13:41:41;24.67;54.68
67722;SHT31;58309;45.292;11.820;2022-10-31T13:44:19;24.77;54.42
67722;SHT31;58309;45.292;11.820;2022-10-31T13:46:46;24.80;55.54
67722;SHT31;58309;45.292;11.820;2022-10-31T13:49:26;24.77;54.74
67722;SHT31;58309;45.292;11.820;2022-10-31T14:00:22;24.72;55.45
67722;SHT31;58309;45.292;11.820;2022-10-31T14:02:51;24.73;55.31
67722;SHT31;58309;45.292;11.820;2022-10-31T14:07:49;24.67;56.29
67722;SHT31;58309;45.292;11.820;2022-10-31T14:10:33;24.67;55.56
67722;SHT31;58309;45.292;11.820;2022-10-31T14:13:32;24.63;55.13
67722;SHT31;58309;45.292;11.820;2022-10-31T14:16:02;24.52;55.48
67722;SHT31;58309;45.292;11.820;2022-10-31T14:18:34;24.39;55.93
67722;SHT31;58309;45.292;11.820;2022-10-31T14:21:00;24.32;55.54
67722;SHT31;58309;45.292;11.820;2022-10-31T14:26:07;24.22;56.16
67722;SHT31;58309;45.292;11.820;2022-10-31T14:28:41;24.21;55.36
67722;SHT31;58309;45.292;11.820;2022-10-31T14:31:34;24.16;56.49
67722;SHT31;58309;45.292;11.820;2022-10-31T14:37:16;24.04;55.82
67722;SHT31;58309;45.292;11.820;2022-10-31T14:39:58;23.88;56.91
67722;SHT31;58309;45.292;11.820;2022-10-31T14:50:54;23.47;60.40
67722;SHT31;58309;45.292;11.820;2022-10-31T14:53:34;23.31;58.84
67722;SHT31;58309;45.292;11.820;2022-10-31T14:56:01;23.24;59.10
67722;SHT31;58309;45.292;11.820;2022-10-31T14:58:38;23.14;59.42
67722;SHT31;58309;45.292;11.820;2022-10-31T15:01:06;23.02;58.82
67722;SHT31;58309;45.292;11.820;2022-10-31T15:03:35;22.91;59.02
67722;SHT31;58309;45.292;11.820;2022-10-31T15:06:09;22.73;60.22
67722;SHT31;58309;45.292;11.820;2022-10-31T15:08:39;22.55;61.43
67722;SHT31;58309;45.292;11.820;2022-10-31T15:11:21;22.27;61.32
67722;SHT31;58309;45.292;11.820;2022-10-31T15:13:55;22.07;62.07
67722;SHT31;58309;45.292;11.820;2022-10-31T15:16:32;21.82;64.26
67722;SHT31;58309;45.292;11.820;2022-10-31T15:19:07;21.57;63.98
67722;SHT31;58309;45.292;11.820;2022-10-31T15:21:33;21.38;63.35
67722;SHT31;58309;45.292;11.820;2022-10-31T15:24:02;21.21;64.71
67722;SHT31;58309;45.292;11.820;2022-10-31T15:26:35;21.04;66.29
67722;SHT31;58309;45.292;11.820;2022-10-31T15:29:13;20.80;66.94
67722;SHT31;58309;45.292;11.820;2022-10-31T15:31:48;20.58;67.70
67722;SHT31;58309;45.292;11.820;2022-10-31T15:34:20;20.37;68.77
67722;SHT31;58309;45.292;11.820;2022-10-31T15:36:49;20.26;70.80
67722;SHT31;58309;45.292;11.820;2022-10-31T15:39:16;20.09;69.81
67722;SHT31;58309;45.292;11.820;2022-10-31T15:41:53;19.93;71.11
67722;SHT31;58309;45.292;11.820;2022-10-31T15:44:31;19.78;71.20
67722;SHT31;58309;45.292;11.820;2022-10-31T15:47:04;19.62;71.95
67722;SHT31;58309;45.292;11.820;2022-10-31T15:50:00;19.47;72.98
67722;SHT31;58309;45.292;11.820;2022-10-31T15:54:58;19.17;74.11
67722;SHT31;58309;45.292;11.820;2022-10-31T15:57:25;19.02;74.70
67722;SHT31;58309;45.292;11.820;2022-10-31T15:59:54;18.87;75.14
67722;SHT31;58309;45.292;11.820;2022-10-31T16:02:25;18.77;75.84
67722;SHT31;58309;45.292;11.820;2022-10-31T16:04:57;18.65;75.97
67722;SHT31;58309;45.292;11.820;2022-10-31T16:07:24;18.52;76.06
67722;SHT31;58309;45.292;11.820;2022-10-31T16:09:57;18.41;76.96
67722;SHT31;58309;45.292;11.820;2022-10-31T16:12:24;18.36;77.58
67722;SHT31;58309;45.292;11.820;2022-10-31T16:14:52;18.21;77.13
67722;SHT31;58309;45.292;11.820;2022-10-31T16:17:21;18.05;77.30
67722;SHT31;58309;45.292;11.820;2022-10-31T16:19:54;17.91;77.97
67722;SHT31;58309;45.292;11.820;2022-10-31T16:27:31;17.62;79.66
67722;SHT31;58309;45.292;11.820;2022-10-31T16:29:59;17.46;79.91
67722;SHT31;58309;45.292;11.820;2022-10-31T16:37:57;16.93;80.76
67722;SHT31;58309;45.292;11.820;2022-10-31T16:40:23;16.82;80.71
67722;SHT31;58309;45.292;11.820;2022-10-31T16:42:49;16.72;80.83
67722;SHT31;58309;45.292;11.820;2022-10-31T16:45:17;16.69;80.90
67722;SHT31;58309;45.292;11.820;2022-10-31T16:47:43;16.67;81.85
67722;SHT31;58309;45.292;11.820;2022-10-31T16:50:27;16.69;81.89
67722;SHT31;58309;45.292;11.820;2022-10-31T16:52:53;16.85;81.54
67722;SHT31;58309;45.292;11.820;2022-10-31T16:55:19;16.88;81.32
67722;SHT31;58309;45.292;11.820;2022-10-31T16:57:47;16.84;81.56
67722;SHT31;58309;45.292;11.820;2022-10-31T17:00:18;16.74;81.46
67722;SHT31;58309;45.292;11.820;2022-10-31T17:02:45;16.65;81.89
67722;SHT31;58309;45.292;11.820;2022-10-31T17:05:15;16.62;82.39
67722;SHT31;58309;45.292;11.820;2022-10-31T17:07:41;16.57;82.64
67722;SHT31;58309;45.292;11.820;2022-10-31T17:10:08;16.57;83.10
67722;SHT31;58309;45.292;11.820;2022-10-31T17:12:34;16.55;83.35
67722;SHT31;58309;45.292;11.820;2022-10-31T17:15:00;16.62;83.87
67722;SHT31;58309;45.292;11.820;2022-10-31T17:17:26;16.54;83.69
67722;SHT31;58309;45.292;11.820;2022-10-31T17:19:52;16.45;83.94
67722;SHT31;58309;45.292;11.820;2022-10-31T17:22:17;16.35;85.44
67722;SHT31;58309;45.292;11.820;2022-10-31T17:24:43;16.35;85.92
67722;SHT31;58309;45.292;11.820;2022-10-31T17:27:09;16.28;85.94
67722;SHT31;58309;45.292;11.820;2022-10-31T17:29:34;16.20;86.79
67722;SHT31;58309;45.292;11.820;2022-10-31T17:32:00;16.14;87.98
67722;SHT31;58309;45.292;11.820;2022-10-31T17:34:27;16.02;88.42
67722;SHT31;58309;45.292;11.820;2022-10-31T17:36:53;15.92;88.14
67722;SHT31;58309;45.292;11.820;2022-10-31T17:39:19;15.78;88.26
67722;SHT31;58309;45.292;11.820;2022-10-31T17:41:44;15.69;88.64
67722;SHT31;58309;45.292;11.820;2022-10-31T17:44:11;15.61;88.99
67722;SHT31;58309;45.292;11.820;2022-10-31T17:46:37;15.53;89.32
67722;SHT31;58309;45.292;11.820;2022-10-31T17:49:03;15.46;89.65
67722;SHT31;58309;45.292;11.820;2022-10-31T17:51:31;15.36;90.11
67722;SHT31;58309;45.292;11.820;2022-10-31T17:53:57;15.32;90.91
67722;SHT31;58309;45.292;11.820;2022-10-31T17:56:22;15.25;91.47
67722;SHT31;58309;45.292;11.820;2022-10-31T17:58:48;15.20;91.56
67722;SHT31;58309;45.292;11.820;2022-10-31T18:01:15;15.11;91.65
67722;SHT31;58309;45.292;11.820;2022-10-31T18:03:42;14.98;90.98
67722;SHT31;58309;45.292;11.820;2022-10-31T18:06:09;14.88;90.32
67722;SHT31;58309;45.292;11.820;2022-10-31T18:08:37;14.80;89.82
67722;SHT31;58309;45.292;11.820;2022-10-31T18:11:15;14.64;89.62
67722;SHT31;58309;45.292;11.820;2022-10-31T18:13:41;14.63;89.53
67722;SHT31;58309;45.292;11.820;2022-10-31T18:16:13;14.57;89.48
67722;SHT31;58309;45.292;11.820;2022-10-31T18:18:39;14.52;89.72